Time;durP1;ratioP1;P1;durP2;ratioP2;P2;SDS_P1;SDS_P2;PMS_P1;PMS_P2;Temp;Humidity;BMP_temperature;BMP_pressure;BME280_temperature;BME280_humidity;BME280_pressure;Samples;Min_cycle;Max_cycle;Signal;HPM_P1;HPM_P2
2021/01/06 00:00:59;;;;;;;5.77;5.20;;;;;;;3.32;85.13;100548.00;5077095;28;20229;-81
2021/01/06 00:03:27;;;;;;;6.47;5.50;;;;;;;3.35;84.74;100546.31;5079520;28;20228;-81
2021/01/06 00:05:56;;;;;;;5.63;5.10;;;;;;;3.31;84.97;100553.97;5076025;28;20196;-79
2021/01/06 00:08:22;;;;;;;5.47;4.97;;;;;;;3.30;85.01;100547.97;5079054;28;20209;-77
2021/01/06 00:10:51;;;;;;;5.67;5.10;;;;;;;3.35;84.46;100546.31;5067991;28;20200;-78
2021/01/06 00:13:17;;;;;;;5.60;4.90;;;;;;;3.32;84.96;100553.16;5038071;28;20191;-78
2021/01/06 00:15:43;;;;;;;6.10;4.93;;;;;;;3.33;84.46;100552.28;5069736;28;20291;-77
2021/01/06 00:18:09;;;;;;;5.40;5.00;;;;;;;3.30;84.76;100554.84;5078499;28;20685;-78
2021/01/06 00:20:35;;;;;;;6.10;5.50;;;;;;;3.28;84.44;100546.22;5067561;28;20311;-78
2021/01/06 00:23:01;;;;;;;5.77;5.10;;;;;;;3.30;84.45;100549.69;5078142;28;20667;-78
2021/01/06 00:25:28;;;;;;;5.63;5.13;;;;;;;3.30;84.68;100544.53;5066071;28;20201;-78
2021/01/06 00:27:55;;;;;;;5.30;4.73;;;;;;;3.32;84.59;100546.28;5067024;28;20202;-78
2021/01/06 00:30:24;;;;;;;5.40;4.60;;;;;;;3.32;84.54;100542.84;5061124;28;20217;-78
2021/01/06 00:32:50;;;;;;;4.73;4.30;;;;;;;3.29;84.60;100538.50;5077959;28;20211;-78
2021/01/06 00:35:16;;;;;;;5.30;4.83;;;;;;;3.28;84.17;100541.91;5067839;28;20263;-77
2021/01/06 00:37:42;;;;;;;5.00;4.50;;;;;;;3.28;84.47;100530.75;5078325;28;20200;-79
2021/01/06 00:40:09;;;;;;;4.70;4.30;;;;;;;3.29;84.45;100533.34;5065062;28;20702;-82
2021/01/06 00:42:36;;;;;;;4.90;4.30;;;;;;;3.30;83.93;100529.91;5054314;28;20201;-78
2021/01/06 00:45:06;;;;;;;4.90;4.40;;;;;;;3.29;84.50;100528.19;5065782;28;20227;-78
2021/01/06 00:47:31;;;;;;;5.80;4.50;;;;;;;3.25;84.28;100526.41;5077517;28;20682;-80
2021/01/06 00:49:57;;;;;;;3.80;3.50;;;;;;;3.24;84.45;100526.41;5074890;28;20227;-81
2021/01/06 00:52:23;;;;;;;4.90;4.40;;;;;;;3.24;84.28;100516.06;5077452;28;20201;-78
2021/01/06 00:54:49;;;;;;;4.83;4.43;;;;;;;3.25;84.75;100513.53;5070724;28;20263;-78
2021/01/06 00:57:15;;;;;;;4.60;4.20;;;;;;;3.22;84.52;100512.63;5060454;28;20193;-77
2021/01/06 00:59:41;;;;;;;4.07;3.77;;;;;;;3.24;84.57;100513.50;5073352;28;20587;-78
2021/01/06 01:02:08;;;;;;;4.50;3.90;;;;;;;3.23;83.98;100522.06;5076956;28;20307;-78
2021/01/06 01:04:34;;;;;;;4.20;3.80;;;;;;;3.23;84.22;100514.34;5068527;28;20201;-77
2021/01/06 01:07:00;;;;;;;4.07;3.70;;;;;;;3.24;84.88;100513.50;5075155;28;20331;-77
2021/01/06 01:09:26;;;;;;;4.80;4.40;;;;;;;3.24;84.12;100516.94;5074095;28;20232;-78
2021/01/06 01:11:51;;;;;;;4.30;3.90;;;;;;;3.25;84.12;100513.53;5077025;28;20201;-78
2021/01/06 01:14:17;;;;;;;4.00;3.50;;;;;;;3.26;83.75;100512.66;5072648;28;20251;-80
2021/01/06 01:16:44;;;;;;;4.07;3.67;;;;;;;3.18;84.09;100503.97;5056582;28;20574;-80
2021/01/06 01:19:11;;;;;;;4.50;3.83;;;;;;;3.20;84.38;100502.28;5060868;28;20218;-79
2021/01/06 01:21:37;;;;;;;5.87;4.60;;;;;;;3.15;84.98;100503.91;5079016;28;20213;-80
2021/01/06 01:24:03;;;;;;;4.37;3.97;;;;;;;3.16;84.35;100506.53;5075371;28;20213;-80
2021/01/06 01:26:29;;;;;;;4.43;4.03;;;;;;;3.18;83.97;100504.81;5063179;28;20354;-80
2021/01/06 01:28:55;;;;;;;4.03;3.73;;;;;;;3.16;84.46;100505.66;5070297;28;20304;-80
2021/01/06 01:31:21;;;;;;;4.10;3.80;;;;;;;3.11;84.53;100507.31;5072723;28;20597;-80
2021/01/06 01:33:47;;;;;;;4.23;3.83;;;;;;;3.08;84.31;100515.03;5076471;28;20205;-80
2021/01/06 01:36:13;;;;;;;4.63;4.23;;;;;;;3.04;84.88;100515.84;5070258;28;20197;-79
2021/01/06 01:38:40;;;;;;;4.40;4.00;;;;;;;3.03;85.15;100507.22;5072792;28;20197;-78
2021/01/06 01:41:08;;;;;;;4.53;4.17;;;;;;;3.03;85.02;100506.34;5074832;28;20229;-80
2021/01/06 01:43:35;;;;;;;4.37;4.00;;;;;;;3.09;84.67;100503.84;5076552;28;20204;-80
2021/01/06 01:46:32;;;;;;;4.47;4.07;;;;;;;3.10;84.89;100503.00;5066819;28;20209;-80
2021/01/06 01:49:00;;;;;;;4.83;4.37;;;;;;;3.11;84.60;100500.47;5042505;28;20326;-80
2021/01/06 01:51:34;;;;;;;5.20;4.67;;;;;;;3.07;84.61;100498.69;5077973;28;20206;-80
2021/01/06 01:54:03;;;;;;;6.37;5.77;;;;;;;3.11;84.68;100491.84;5073981;28;20196;-80
2021/01/06 01:56:35;;;;;;;5.40;4.87;;;;;;;3.11;84.70;100495.31;5070999;28;20246;-80
2021/01/06 01:59:05;;;;;;;6.03;5.43;;;;;;;3.10;84.86;100490.97;5073435;28;20221;-80
2021/01/06 02:01:31;;;;;;;5.43;4.83;;;;;;;3.13;84.38;100484.97;5076986;28;20213;-80
2021/01/06 02:04:02;;;;;;;6.30;5.80;;;;;;;3.08;84.82;100484.94;5075371;28;20701;-80
2021/01/06 02:06:33;;;;;;;6.50;6.00;;;;;;;3.08;84.58;100479.78;5074073;28;20262;-80
2021/01/06 02:09:03;;;;;;;6.23;5.80;;;;;;;3.04;84.58;100484.88;5058891;28;20250;-80
2021/01/06 02:11:37;;;;;;;7.13;6.53;;;;;;;3.05;84.70;100484.88;5070404;28;20666;-80
2021/01/06 02:14:12;;;;;;;6.10;5.60;;;;;;;3.03;84.75;100481.41;5074833;28;20688;-80
2021/01/06 02:16:45;;;;;;;6.07;5.57;;;;;;;3.04;84.88;100478.00;5071188;28;20196;-80
2021/01/06 02:19:12;;;;;;;7.13;6.53;;;;;;;3.03;85.12;100483.13;5072238;28;20317;-80
2021/01/06 02:21:39;;;;;;;7.63;5.87;;;;;;;3.03;85.30;100476.25;5073089;28;20243;-80
2021/01/06 02:24:06;;;;;;;6.77;6.10;;;;;;;3.04;85.07;100477.16;5068334;28;20204;-80
2021/01/06 02:26:32;;;;;;;6.73;6.13;;;;;;;3.00;85.37;100473.66;5058302;28;20710;-80
2021/01/06 02:28:58;;;;;;;6.47;5.87;;;;;;;3.01;85.36;100477.09;5057582;28;20316;-80
2021/01/06 02:31:24;;;;;;;7.27;6.57;;;;;;;3.03;85.14;100481.41;5083282;28;20204;-80
2021/01/06 02:33:51;;;;;;;5.13;4.70;;;;;;;3.00;85.04;100471.09;5081383;28;20204;-80
2021/01/06 02:36:19;;;;;;;5.63;4.90;;;;;;;2.99;84.57;100469.34;5075447;28;20208;-80
2021/01/06 02:38:46;;;;;;;5.27;4.87;;;;;;;2.98;85.52;100472.78;5071958;28;20225;-80
2021/01/06 02:41:13;;;;;;;5.77;4.67;;;;;;;2.94;85.45;100468.44;5068773;28;20218;-80
2021/01/06 02:43:41;;;;;;;4.60;4.20;;;;;;;2.97;85.43;100471.03;5040727;28;20216;-80
2021/01/06 02:46:07;;;;;;;4.83;4.43;;;;;;;2.96;85.23;100470.19;5080070;28;20254;-78
2021/01/06 02:48:33;;;;;;;5.37;4.87;;;;;;;3.02;85.35;100466.81;5079884;28;20204;-80
2021/01/06 02:51:02;;;;;;;4.43;4.03;;;;;;;3.01;85.48;100475.38;5077612;28;20205;-80
2021/01/06 02:53:34;;;;;;;4.63;4.23;;;;;;;3.00;85.51;100470.22;5082078;28;20205;-79
2021/01/06 02:56:04;;;;;;;5.03;4.60;;;;;;;2.96;85.66;100465.03;5068165;28;20254;-78
2021/01/06 02:58:30;;;;;;;4.77;4.37;;;;;;;3.01;85.54;100465.06;5079306;28;20203;-80
2021/01/06 03:00:56;;;;;;;4.87;4.40;;;;;;;3.01;85.23;100464.22;5068595;28;20275;-77
2021/01/06 03:03:28;;;;;;;4.10;3.80;;;;;;;3.04;85.06;100459.09;5077544;28;20201;-79
2021/01/06 03:06:03;;;;;;;4.10;3.80;;;;;;;3.03;84.80;100453.06;5067781;28;20205;-79
2021/01/06 03:08:29;;;;;;;5.10;4.70;;;;;;;3.02;85.08;100458.22;5081811;28;20719;-79
2021/01/06 03:10:55;;;;;;;5.07;4.23;;;;;;;2.99;84.94;100453.88;5071797;28;20287;-80
2021/01/06 03:13:22;;;;;;;4.10;3.80;;;;;;;3.02;85.31;100453.06;5079849;28;20212;-80
2021/01/06 03:15:48;;;;;;;4.27;3.97;;;;;;;2.94;85.55;100446.09;5058442;28;20262;-79
2021/01/06 03:18:14;;;;;;;4.43;4.03;;;;;;;3.00;85.16;100447.03;5078324;28;20208;-80
2021/01/06 03:20:43;;;;;;;4.30;3.90;;;;;;;2.96;84.74;100454.72;5070702;28;20225;-80
2021/01/06 03:23:14;;;;;;;3.73;3.43;;;;;;;2.95;85.81;100445.25;5082910;28;20243;-80
2021/01/06 03:25:41;;;;;;;4.00;3.67;;;;;;;2.91;85.65;100446.03;5077021;28;20205;-80
2021/01/06 03:28:10;;;;;;;4.50;4.03;;;;;;;2.98;85.38;100444.41;5082431;28;20229;-80
2021/01/06 03:30:37;;;;;;;4.03;3.73;;;;;;;2.95;85.08;100441.78;5070742;28;20244;-80
2021/01/06 03:33:11;;;;;;;4.43;4.03;;;;;;;2.95;85.03;100442.69;5080014;28;20228;-80
2021/01/06 03:35:41;;;;;;;4.77;4.40;;;;;;;2.98;85.34;100437.53;5060840;28;20210;-79
2021/01/06 03:38:23;;;;;;;3.80;3.50;;;;;;;2.97;85.16;100440.09;5060876;28;20584;-80
2021/01/06 03:40:52;;;;;;;4.10;3.80;;;;;;;2.95;85.29;100439.22;5076735;28;20311;-79
2021/01/06 03:43:19;;;;;;;8.37;4.73;;;;;;;2.95;85.39;100436.63;5082029;28;20209;-79
2021/01/06 03:45:49;;;;;;;4.20;3.80;;;;;;;2.89;85.32;100434.84;5069653;28;20208;-79
2021/01/06 03:48:21;;;;;;;4.30;3.90;;;;;;;2.90;84.87;100435.72;5081968;28;20255;-80
2021/01/06 03:50:51;;;;;;;4.20;3.90;;;;;;;2.89;85.01;100427.09;5066419;28;20201;-80
2021/01/06 03:53:28;;;;;;;4.83;3.67;;;;;;;2.87;85.13;100427.94;5041981;28;20580;-80
2021/01/06 03:55:56;;;;;;;3.50;3.20;;;;;;;2.90;85.36;100422.84;5068036;28;20207;-80
2021/01/06 03:58:34;;;;;;;3.77;3.47;;;;;;;2.90;84.48;100422.84;5081419;28;20212;-80
2021/01/06 04:01:12;;;;;;;3.97;3.60;;;;;;;2.86;84.83;100421.94;5078070;28;20234;-80
2021/01/06 04:03:49;;;;;;;3.63;3.33;;;;;;;2.84;84.65;100415.03;5081998;28;20212;-80
2021/01/06 04:06:17;;;;;;;3.63;3.33;;;;;;;2.83;84.88;100409.00;5078731;28;20196;-80
2021/01/06 04:08:48;;;;;;;3.17;2.97;;;;;;;2.80;85.57;100415.84;5069269;28;20236;-79
2021/01/06 04:11:21;;;;;;;3.23;3.00;;;;;;;2.86;85.13;100416.78;5070288;28;20670;-80
2021/01/06 04:13:47;;;;;;;3.37;3.07;;;;;;;2.81;85.52;100412.41;5077378;28;20200;-80
2021/01/06 04:16:13;;;;;;;3.43;3.13;;;;;;;2.83;85.05;100413.28;5069338;28;20204;-80
2021/01/06 04:18:39;;;;;;;3.77;3.47;;;;;;;2.78;85.17;100408.94;5076757;28;20239;-80
2021/01/06 04:21:05;;;;;;;3.93;3.60;;;;;;;2.80;85.01;100410.69;5066973;28;20228;-79
2021/01/06 04:23:33;;;;;;;4.50;3.47;;;;;;;2.83;85.97;100410.72;5077752;28;20712;-80
2021/01/06 04:25:59;;;;;;;3.70;3.40;;;;;;;2.85;84.94;100403.88;5049919;28;20292;-80
2021/01/06 04:28:27;;;;;;;4.07;3.40;;;;;;;2.82;85.21;100404.69;5070861;28;20255;-81
2021/01/06 04:30:55;;;;;;;3.33;3.10;;;;;;;2.81;84.78;100402.09;5064844;28;20208;-80
2021/01/06 04:33:25;;;;;;;3.83;3.50;;;;;;;2.75;85.06;100408.91;5077529;28;20667;-80
2021/01/06 04:35:52;;;;;;;3.67;3.30;;;;;;;2.77;85.83;100402.06;5067073;28;20657;-80
2021/01/06 04:38:21;;;;;;;3.40;3.13;;;;;;;2.76;84.89;100400.34;5065300;28;20201;-79
2021/01/06 04:40:51;;;;;;;3.40;3.10;;;;;;;2.74;85.37;100402.03;5072648;28;20236;-79
2021/01/06 04:43:25;;;;;;;3.70;3.40;;;;;;;2.74;85.58;100396.88;5071984;28;20205;-80
2021/01/06 04:46:02;;;;;;;3.10;2.80;;;;;;;2.73;85.91;100394.28;5073606;28;20200;-80
2021/01/06 04:48:51;;;;;;;3.53;3.27;;;;;;;2.74;85.81;100389.13;5077726;28;20605;-80
2021/01/06 04:51:30;;;;;;;3.70;3.40;;;;;;;2.70;85.53;100392.53;5061566;28;20235;-80
2021/01/06 04:54:13;;;;;;;3.73;3.43;;;;;;;2.70;85.86;100389.09;5073661;28;20568;-80
2021/01/06 04:56:54;;;;;;;3.50;3.10;;;;;;;2.72;85.62;100389.97;5072160;28;20197;-80
2021/01/06 04:59:36;;;;;;;3.60;3.17;;;;;;;2.73;84.91;100386.53;5070806;28;20637;-79
2021/01/06 05:02:24;;;;;;;3.70;3.33;;;;;;;2.71;85.08;100390.81;5076711;28;20220;-80
2021/01/06 05:05:06;;;;;;;4.10;3.70;;;;;;;2.65;85.38;100381.28;5074750;28;20213;-79
2021/01/06 05:07:46;;;;;;;3.50;3.00;;;;;;;2.64;85.28;100387.31;5057031;28;20205;-79
2021/01/06 05:10:26;;;;;;;3.63;3.10;;;;;;;2.69;84.96;100382.19;5066571;28;20220;-79
2021/01/06 05:12:55;;;;;;;3.57;3.17;;;;;;;2.62;84.99;100380.38;5076704;28;20197;-79
2021/01/06 05:15:42;;;;;;;3.60;3.27;;;;;;;2.59;85.58;100379.50;5073501;28;20193;-80
2021/01/06 05:18:08;;;;;;;4.30;3.80;;;;;;;2.63;85.04;100389.84;5074174;28;20200;-80
2021/01/06 05:20:36;;;;;;;3.57;3.27;;;;;;;2.66;84.96;100379.59;5065742;28;20225;-79
2021/01/06 05:23:02;;;;;;;4.07;3.67;;;;;;;2.62;85.38;100377.81;5065975;28;20205;-80
2021/01/06 05:25:29;;;;;;;4.37;3.97;;;;;;;2.63;85.50;100376.97;5066081;28;20201;-80
2021/01/06 05:27:55;;;;;;;4.00;3.70;;;;;;;2.62;85.73;100382.94;5076569;28;20619;-80
2021/01/06 05:30:24;;;;;;;3.77;3.47;;;;;;;2.59;85.67;100382.06;5073332;28;20231;-80
2021/01/06 05:32:54;;;;;;;3.33;3.13;;;;;;;2.62;84.97;100376.09;5076530;28;20208;-79
2021/01/06 05:35:24;;;;;;;3.70;3.40;;;;;;;2.64;85.08;100373.56;5072893;28;20200;-79
2021/01/06 05:37:53;;;;;;;3.80;3.40;;;;;;;2.58;85.64;100372.63;5068584;28;20211;-79
2021/01/06 05:40:20;;;;;;;3.30;3.10;;;;;;;2.63;84.69;100375.25;5061652;28;20297;-79
2021/01/06 05:42:50;;;;;;;3.60;3.30;;;;;;;2.60;85.24;100370.06;5076235;28;20208;-80
2021/01/06 05:45:17;;;;;;;4.43;4.13;;;;;;;2.57;85.75;100367.44;5065549;28;20197;-80
2021/01/06 05:47:49;;;;;;;3.53;3.23;;;;;;;2.53;85.64;100369.13;5075666;28;20205;-78
2021/01/06 05:50:20;;;;;;;3.70;3.40;;;;;;;2.55;85.13;100369.13;5071984;28;20748;-78
2021/01/06 05:52:58;;;;;;;4.20;3.73;;;;;;;2.53;85.43;100370.84;5075032;28;20601;-78
2021/01/06 05:55:25;;;;;;;4.47;4.07;;;;;;;2.48;85.43;100378.50;5065345;28;20263;-79
2021/01/06 05:58:02;;;;;;;3.90;3.60;;;;;;;2.51;85.03;100373.38;5071237;28;20209;-80
2021/01/06 06:00:41;;;;;;;4.10;3.67;;;;;;;2.49;85.11;100375.06;5063272;28;20293;-78
2021/01/06 06:03:33;;;;;;;3.50;3.20;;;;;;;2.49;85.56;100372.50;5074639;28;20207;-80
2021/01/06 06:06:04;;;;;;;3.67;3.37;;;;;;;2.53;85.05;100375.97;5060009;28;20621;-80
2021/01/06 06:08:46;;;;;;;3.87;3.53;;;;;;;2.55;84.54;100366.56;5054126;28;20197;-80
2021/01/06 06:11:36;;;;;;;4.10;3.80;;;;;;;2.51;85.15;100369.94;5053372;28;20284;-80
2021/01/06 06:14:28;;;;;;;4.03;3.33;;;;;;;2.47;85.20;100369.03;5050700;28;20198;-79
2021/01/06 06:17:02;;;;;;;3.67;3.37;;;;;;;2.45;85.22;100364.72;5053221;28;20288;-81
2021/01/06 06:19:58;;;;;;;5.03;4.30;;;;;;;2.46;85.36;100367.31;5053321;28;20249;-78
2021/01/06 06:22:29;;;;;;;4.80;3.80;;;;;;;2.44;84.64;100365.56;5055782;28;20267;-78
2021/01/06 06:25:01;;;;;;;4.27;3.70;;;;;;;2.39;85.25;100374.09;5051764;28;20205;-79
2021/01/06 06:27:46;;;;;;;4.20;3.63;;;;;;;2.38;85.70;100372.38;5046086;28;20186;-77
2021/01/06 06:30:37;;;;;;;4.97;4.23;;;;;;;2.34;85.81;100365.44;5051366;28;20258;-77
2021/01/06 06:33:15;;;;;;;4.53;4.13;;;;;;;2.38;84.84;100367.22;5056941;28;20746;-79
2021/01/06 06:35:46;;;;;;;4.40;4.03;;;;;;;2.37;85.40;100364.63;5052366;28;20767;-77
2021/01/06 06:38:12;;;;;;;4.80;4.40;;;;;;;2.29;85.36;100364.50;5045403;28;20210;-77
2021/01/06 06:40:54;;;;;;;4.80;4.30;;;;;;;2.31;84.84;100361.97;5063883;28;20263;-79
2021/01/06 06:43:31;;;;;;;5.20;4.70;;;;;;;2.32;85.64;100362.00;5032981;28;20264;-78
2021/01/06 06:46:20;;;;;;;4.87;4.47;;;;;;;2.36;85.42;100370.63;5058587;28;20208;-77
2021/01/06 06:49:23;;;;;;;5.00;4.60;;;;;;;2.36;85.35;100362.91;5033768;28;20222;-79
2021/01/06 06:51:55;;;;;;;4.93;4.53;;;;;;;2.30;85.06;100365.38;5068682;28;20196;-78
2021/01/06 06:54:30;;;;;;;4.93;4.43;;;;;;;2.32;85.46;100366.25;5066146;28;20247;-78
2021/01/06 06:57:02;;;;;;;5.33;4.83;;;;;;;2.36;85.53;100366.34;5069823;28;20239;-79
2021/01/06 06:59:35;;;;;;;5.00;4.60;;;;;;;2.36;84.72;100368.91;5069488;28;20232;-78
2021/01/06 07:02:03;;;;;;;5.03;4.57;;;;;;;2.33;84.88;100368.84;5072676;28;20270;-79
2021/01/06 07:04:37;;;;;;;6.37;5.37;;;;;;;2.31;84.96;100369.69;5061561;28;20194;-78
2021/01/06 07:07:04;;;;;;;5.40;4.97;;;;;;;2.37;85.30;100375.78;5063009;28;20216;-78
2021/01/06 07:09:33;;;;;;;5.63;5.13;;;;;;;2.35;85.31;100372.31;5053433;28;20218;-78
2021/01/06 07:12:07;;;;;;;5.60;5.10;;;;;;;2.39;84.66;100371.50;5041080;28;20202;-79
2021/01/06 07:14:36;;;;;;;5.70;5.20;;;;;;;2.45;84.90;100380.19;5040698;28;20725;-79
2021/01/06 07:17:10;;;;;;;6.40;5.33;;;;;;;2.38;84.42;100376.66;5062624;28;20256;-77
2021/01/06 07:19:52;;;;;;;5.53;5.03;;;;;;;2.44;84.20;100379.31;5049350;28;20221;-78
2021/01/06 07:22:24;;;;;;;6.13;5.37;;;;;;;2.43;84.49;100381.88;5043175;28;20604;-77
2021/01/06 07:24:55;;;;;;;6.20;5.70;;;;;;;2.49;84.37;100371.63;5045465;28;20206;-78
2021/01/06 07:27:22;;;;;;;5.23;4.83;;;;;;;2.39;83.87;100376.66;5060766;28;20562;-78
2021/01/06 07:29:52;;;;;;;6.13;5.53;;;;;;;2.44;84.10;100381.91;5065162;28;20222;-79
2021/01/06 07:32:23;;;;;;;6.03;5.43;;;;;;;2.47;83.85;100379.34;5067327;28;20252;-77
2021/01/06 07:34:51;;;;;;;6.33;5.80;;;;;;;2.37;84.00;100375.78;5074004;28;20211;-77
2021/01/06 07:37:31;;;;;;;5.63;5.10;;;;;;;2.39;83.80;100379.25;5075494;28;20690;-78
2021/01/06 07:40:00;;;;;;;7.37;5.97;;;;;;;2.41;83.76;100381.84;5055554;28;20224;-79
2021/01/06 07:42:46;;;;;;;6.13;5.53;;;;;;;2.23;84.48;100386.75;5075660;28;20263;-79
2021/01/06 07:45:32;;;;;;;6.50;5.93;;;;;;;2.29;84.19;100381.69;5064248;28;20270;-78
2021/01/06 07:48:11;;;;;;;7.87;5.10;;;;;;;2.27;84.61;100383.38;5066715;28;20200;-81
2021/01/06 07:50:39;;;;;;;6.37;5.77;;;;;;;2.30;84.29;100385.97;5061388;28;20220;-79
2021/01/06 07:53:08;;;;;;;6.80;6.20;;;;;;;2.31;84.52;100387.72;5076934;28;20205;-78
2021/01/06 07:55:38;;;;;;;5.90;5.37;;;;;;;2.28;83.75;100383.41;5062494;28;20252;-79
2021/01/06 07:58:10;;;;;;;6.33;4.90;;;;;;;2.24;83.60;100380.75;5075315;28;20197;-78
2021/01/06 08:00:41;;;;;;;6.17;5.57;;;;;;;2.22;83.42;100388.47;5066091;28;20307;-78
2021/01/06 08:03:20;;;;;;;5.90;5.00;;;;;;;2.23;83.49;100390.19;5076525;28;20201;-78
2021/01/06 08:05:55;;;;;;;5.40;4.90;;;;;;;2.17;84.43;100392.69;5060052;28;20213;-79
2021/01/06 08:08:22;;;;;;;7.53;5.53;;;;;;;2.16;84.06;100389.25;5071304;28;20208;-79
2021/01/06 08:10:49;;;;;;;6.77;5.20;;;;;;;2.18;84.65;100381.50;5046951;28;20797;-79
2021/01/06 08:13:25;;;;;;;6.07;5.47;;;;;;;2.21;83.70;100379.00;5059093;28;20202;-81
2021/01/06 08:15:54;;;;;;;7.47;6.93;;;;;;;2.28;84.32;100385.97;5061879;28;20457;-81
2021/01/06 08:18:27;;;;;;;6.10;5.60;;;;;;;2.35;83.54;100387.78;5053445;28;20205;-82
2021/01/06 08:21:03;;;;;;;9.90;8.27;;;;;;;2.39;82.72;100383.53;5056648;28;20212;-81
2021/01/06 08:23:47;;;;;;;7.33;6.53;;;;;;;2.41;82.97;100384.41;5053996;28;20697;-77
2021/01/06 08:26:18;;;;;;;7.50;6.67;;;;;;;2.38;83.63;100377.53;5053094;28;20202;-78
2021/01/06 08:28:45;;;;;;;8.07;7.10;;;;;;;2.37;83.09;100378.34;5054521;28;20221;-78
2021/01/06 08:31:15;;;;;;;21.53;16.33;;;;;;;2.29;84.28;100379.09;5053883;28;20206;-79
2021/01/06 08:33:49;;;;;;;32.07;19.43;;;;;;;2.07;83.61;100373.66;5051701;28;20243;-78
2021/01/06 08:36:23;;;;;;;25.97;16.20;;;;;;;1.87;84.77;100378.50;5051677;28;20570;-80
2021/01/06 08:39:01;;;;;;;19.73;14.40;;;;;;;1.91;85.38;100382.84;5052688;28;20221;-78
2021/01/06 08:41:28;;;;;;;20.25;18.13;;;;;;;2.02;85.44;100379.56;5054035;28;20825;-80
2021/01/06 08:43:55;;;;;;;17.53;13.50;;;;;;;1.99;86.55;100378.69;5053624;28;20201;-79
2021/01/06 08:46:23;;;;;;;26.33;14.43;;;;;;;2.13;85.97;100378.88;5051922;28;20647;-79
2021/01/06 08:48:49;;;;;;;18.77;12.10;;;;;;;2.19;85.52;100375.53;5047642;28;20221;-80
2021/01/06 08:51:29;;;;;;;10.77;9.77;;;;;;;2.11;85.03;100382.28;5053971;28;20198;-79
2021/01/06 08:53:55;;;;;;;11.73;10.63;;;;;;;1.96;85.55;100381.22;5054277;28;20675;-80
2021/01/06 08:56:23;;;;;;;8.47;7.77;;;;;;;1.92;85.26;100379.44;5063878;28;20197;-80
2021/01/06 08:58:51;;;;;;;7.80;7.10;;;;;;;2.03;85.60;100383.88;5055249;28;20221;-80
2021/01/06 09:01:30;;;;;;;6.67;6.07;;;;;;;1.93;85.81;100370.88;5054047;28;20224;-81
2021/01/06 09:04:07;;;;;;;8.03;7.23;;;;;;;1.50;86.46;100377.03;5056373;28;20734;-80
2021/01/06 09:06:33;;;;;;;11.67;10.37;;;;;;;1.51;86.63;100381.34;5042004;28;20617;-81
2021/01/06 09:09:25;;;;;;;13.50;10.17;;;;;;;1.48;87.65;100386.44;5047966;28;20214;-81
2021/01/06 09:11:54;;;;;;;10.20;9.20;;;;;;;1.59;86.60;100380.63;5056406;28;20186;-82
2021/01/06 09:14:30;;;;;;;13.23;10.33;;;;;;;1.63;87.31;100380.69;5056714;28;20279;-84
2021/01/06 09:17:04;;;;;;;14.17;10.33;;;;;;;1.45;86.77;100378.66;5061242;28;20284;-83
2021/01/06 09:19:40;;;;;;;11.83;10.43;;;;;;;1.47;87.60;100380.44;5053379;28;20232;-83
2021/01/06 09:22:07;;;;;;;11.17;9.23;;;;;;;1.52;87.57;100375.34;5055867;28;20323;-81
2021/01/06 09:24:36;;;;;;;8.80;7.93;;;;;;;1.38;87.75;100381.13;5070686;28;20201;-81
2021/01/06 09:27:06;;;;;;;10.83;9.73;;;;;;;1.50;87.29;100377.91;5054979;28;20206;-82
2021/01/06 09:29:35;;;;;;;10.30;9.30;;;;;;;1.58;87.62;100372.88;5049941;28;20228;-83
2021/01/06 09:32:08;;;;;;;9.87;8.87;;;;;;;1.50;87.68;100380.47;5071613;28;20205;-83
2021/01/06 09:34:39;;;;;;;9.67;8.77;;;;;;;1.56;87.82;100379.72;5062394;28;20200;-84
2021/01/06 09:37:06;;;;;;;9.37;8.57;;;;;;;1.52;87.08;100388.22;5052054;28;20204;-81
2021/01/06 09:39:35;;;;;;;9.20;8.40;;;;;;;1.53;86.89;100384.81;5059115;28;20334;-80
2021/01/06 09:42:02;;;;;;;9.47;8.57;;;;;;;1.53;87.19;100372.81;5067453;28;20225;-81
2021/01/06 09:44:29;;;;;;;9.10;8.33;;;;;;;1.44;87.52;100382.09;5053157;28;20210;-80
2021/01/06 09:47:00;;;;;;;7.90;7.20;;;;;;;1.45;87.21;100381.22;5052193;28;20205;-82
2021/01/06 09:49:30;;;;;;;9.17;8.27;;;;;;;1.56;87.91;100378.00;5051196;28;20329;-80
2021/01/06 09:51:59;;;;;;;13.27;12.10;;;;;;;1.54;88.02;100377.09;5065776;28;20192;-78
2021/01/06 09:54:26;;;;;;;12.40;11.40;;;;;;;1.69;87.94;100373.06;5062007;28;20609;-80
2021/01/06 09:56:53;;;;;;;13.13;11.87;;;;;;;1.90;88.98;100383.72;5065995;28;20224;-82
2021/01/06 09:59:24;;;;;;;17.43;15.67;;;;;;;1.75;88.31;100376.59;5065087;28;20221;-80
2021/01/06 10:01:56;;;;;;;9.73;8.83;;;;;;;1.50;87.50;100380.47;5062108;28;20220;-79
2021/01/06 10:04:25;;;;;;;11.50;10.50;;;;;;;1.54;88.28;100376.25;5059426;28;20199;-81
2021/01/06 10:07:00;;;;;;;16.93;15.33;;;;;;;1.89;88.60;100375.97;5056822;28;20197;-80
2021/01/06 10:09:30;;;;;;;16.03;12.47;;;;;;;1.97;87.34;100364.06;5060099;28;20271;-81
2021/01/06 10:12:28;;;;;;;13.83;12.43;;;;;;;1.87;86.54;100364.78;5061986;28;20553;-83
2021/01/06 10:15:23;;;;;;;14.40;13.00;;;;;;;1.72;85.64;100363.66;5027761;28;20202;-82
2021/01/06 10:18:01;;;;;;;15.73;14.13;;;;;;;1.53;86.92;100356.53;5061706;28;20205;-83
2021/01/06 10:20:33;;;;;;;17.37;14.80;;;;;;;1.63;86.77;100353.25;5069516;28;20222;-82
2021/01/06 10:23:06;;;;;;;24.73;18.67;;;;;;;1.74;86.62;100350.84;5055301;28;20236;-82
2021/01/06 10:25:41;;;;;;;19.37;16.97;;;;;;;1.92;86.34;100351.13;5057035;28;20201;-83
2021/01/06 10:28:15;;;;;;;29.53;22.93;;;;;;;1.88;85.79;100344.19;5075464;28;20199;-82
2021/01/06 10:31:00;;;;;;;31.57;24.47;;;;;;;1.94;85.56;100346.00;5074947;28;20277;-82
2021/01/06 10:33:26;;;;;;;21.50;19.10;;;;;;;1.93;86.15;100341.69;5036655;28;20672;-83
2021/01/06 10:36:15;;;;;;;28.83;23.67;;;;;;;1.63;86.24;100345.53;5071154;28;20229;-83
2021/01/06 10:38:52;;;;;;;26.47;21.70;;;;;;;1.69;86.51;100339.63;5077303;28;20204;-82
2021/01/06 10:41:25;;;;;;;29.37;22.33;;;;;;;1.80;87.38;100335.50;5072034;28;20738;-82
2021/01/06 10:43:53;;;;;;;30.63;23.03;;;;;;;1.70;86.36;100331.91;5050735;28;20567;-82
2021/01/06 10:46:52;;;;;;;30.70;22.40;;;;;;;1.67;87.49;100331.88;5068185;28;20212;-82
2021/01/06 10:49:51;;;;;;;20.80;17.87;;;;;;;1.47;87.84;100323.00;5070702;28;20229;-82
2021/01/06 10:52:47;;;;;;;20.57;18.37;;;;;;;1.51;87.93;100330.78;5071715;28;20200;-83
2021/01/06 10:55:37;;;;;;;22.83;18.20;;;;;;;1.44;87.90;100334.06;5055789;28;20205;-82
2021/01/06 10:58:13;;;;;;;30.70;19.47;;;;;;;1.26;88.80;100321.78;5078810;28;20204;-82
2021/01/06 11:00:50;;;;;;;26.73;18.53;;;;;;;1.32;88.40;100324.44;5064005;28;20275;-82
2021/01/06 11:03:48;;;;;;;22.33;18.73;;;;;;;1.41;88.26;100318.63;5081087;28;20710;-82
2021/01/06 11:06:26;;;;;;;25.73;18.00;;;;;;;1.43;88.26;100316.03;5038475;28;20204;-82
2021/01/06 11:09:11;;;;;;;22.77;18.93;;;;;;;1.45;88.97;100320.38;5079933;28;20315;-82
2021/01/06 11:12:11;;;;;;;25.03;19.77;;;;;;;1.38;88.23;100318.53;5069275;28;20200;-82
2021/01/06 11:14:55;;;;;;;24.93;20.20;;;;;;;1.34;88.36;100319.34;5068592;28;20208;-82
2021/01/06 11:17:30;;;;;;;23.80;19.47;;;;;;;1.35;88.19;100311.66;5081131;28;20212;-82
2021/01/06 11:19:57;;;;;;;32.90;21.97;;;;;;;1.34;87.71;100309.91;5071539;28;20240;-82
2021/01/06 11:22:39;;;;;;;30.50;22.77;;;;;;;1.34;87.85;100303.91;5073487;28;20228;-82
2021/01/06 11:25:21;;;;;;;35.50;24.17;;;;;;;1.35;88.44;100301.38;5070457;28;20205;-83
2021/01/06 11:28:08;;;;;;;29.53;22.50;;;;;;;1.43;88.38;100298.03;5079522;28;20579;-82
2021/01/06 11:30:37;;;;;;;22.67;19.33;;;;;;;1.50;88.09;100295.59;5071110;28;20220;-82
2021/01/06 11:33:19;;;;;;;17.43;15.77;;;;;;;1.33;87.47;100291.91;5077108;28;20671;-82
2021/01/06 11:35:49;;;;;;;15.30;13.80;;;;;;;1.37;87.53;100291.13;5059621;28;20197;-83
2021/01/06 11:38:49;;;;;;;14.03;12.73;;;;;;;1.28;87.82;100289.25;5077679;28;20197;-83
2021/01/06 11:41:17;;;;;;;13.23;12.00;;;;;;;1.39;88.50;100285.16;5073160;28;20209;-82
2021/01/06 11:43:54;;;;;;;13.83;12.43;;;;;;;1.39;88.29;100280.00;5056993;28;20308;-82
2021/01/06 11:46:40;;;;;;;12.50;11.17;;;;;;;1.41;87.66;100274.00;5061423;28;20189;-83
2021/01/06 11:49:17;;;;;;;13.17;11.87;;;;;;;1.41;88.58;100269.75;5076721;28;20247;-83
2021/01/06 11:52:04;;;;;;;15.13;13.43;;;;;;;1.31;88.04;100268.75;5070733;28;20203;-83
2021/01/06 11:54:35;;;;;;;14.47;13.07;;;;;;;1.41;88.97;100266.28;5063108;28;20205;-83